Time,TemperatureF,DewpointF,PressureIn,WindDirection,WindDirectionDegrees,WindSpeedMPH,WindSpeedGustMPH,Humidity,HourlyPrecipIn,Conditions,Clouds,dailyrainin,SoftwareType,DateUTC
2013-02-26 00:00:00,32.7,16.1,29.75,SSW,200,0.0,0.0,50,0.04,,-RA,0.08,VWS V14.01,2013-02-26 05:00:00,
2013-02-26 00:01:00,32.7,16.1,29.75,WSW,245,0.0,0.0,50,0.04,,-RA,0.00,VWS V14.01,2013-02-26 05:01:00,
2013-02-26 00:06:00,32.7,16.1,29.75,WSW,251,0.0,0.0,50,0.04,,-RA,0.00,VWS V14.01,2013-02-26 05:06:00,
2013-02-26 00:11:00,32.7,16.6,29.75,WSW,258,0.0,0.0,51,0.04,,-RA,0.00,VWS V14.01,2013-02-26 05:11:00,
2013-02-26 00:16:00,32.7,16.6,29.72,WNW,298,0.0,0.0,51,0.04,,-RA,0.00,VWS V14.01,2013-02-26 05:16:00,
2013-02-26 00:21:00,32.7,16.6,29.72,SW,222,0.0,0.0,51,0.04,,-RA,0.00,VWS V14.01,2013-02-26 05:21:00,
2013-02-26 00:26:00,32.7,16.6,29.72,West,263,0.0,0.0,51,0.04,,-RA,0.00,VWS V14.01,2013-02-26 05:26:00,
2013-02-26 00:31:00,32.7,17.0,29.72,West,259,0.0,0.0,52,0.04,,-RA,0.00,VWS V14.01,2013-02-26 05:31:00,
2013-02-26 00:36:00,32.7,17.0,29.72,West,259,0.0,0.0,52,0.04,,-RA,0.00,VWS V14.01,2013-02-26 05:36:00,
2013-02-26 00:41:00,32.9,17.7,29.72,SE,131,0.0,0.0,53,0.04,,-RA,0.00,VWS V14.01,2013-02-26 05:41:00,
2013-02-26 00:47:00,32.9,17.7,29.72,West,266,0.0,0.0,53,0.04,,-RA,0.00,VWS V14.01,2013-02-26 05:47:00,
2013-02-26 00:52:00,32.9,17.7,29.72,West,272,0.0,0.0,53,0.04,,-RA,0.04,VWS V14.01,2013-02-26 05:52:00,
2013-02-26 00:57:00,32.9,17.7,29.72,West,271,0.0,0.0,53,0.04,,-RA,0.04,VWS V14.01,2013-02-26 05:57:00,
2013-02-26 01:02:00,32.9,17.7,29.72,North,353,0.0,0.0,53,0.04,,-RA,0.04,VWS V14.01,2013-02-26 06:02:00,
2013-02-26 01:07:00,32.9,18.1,29.72,North,353,0.0,0.0,54,0.04,,-RA,0.04,VWS V14.01,2013-02-26 06:07:00,
2013-02-26 01:12:00,32.9,18.1,29.72,North,353,0.0,0.0,54,0.04,,-RA,0.04,VWS V14.01,2013-02-26 06:12:00,
2013-02-26 01:17:00,32.9,17.7,29.72,North,357,0.0,0.0,53,0.04,,-RA,0.04,VWS V14.01,2013-02-26 06:17:00,
2013-02-26 01:22:00,32.9,17.7,29.72,ESE,116,0.0,0.0,53,0.04,,-RA,0.04,VWS V14.01,2013-02-26 06:22:00,
2013-02-26 01:27:00,32.9,17.7,29.72,NNE,22,0.0,0.0,53,0.04,,-RA,0.04,VWS V14.01,2013-02-26 06:27:00,
2013-02-26 01:32:00,33.1,18.3,29.69,NW,324,0.0,0.0,54,0.08,,-RA,0.08,VWS V14.01,2013-02-26 06:32:00,
2013-02-26 01:37:00,33.1,18.3,29.69,South,183,0.0,0.0,54,0.08,,-RA,0.08,VWS V14.01,2013-02-26 06:37:00,
2013-02-26 01:42:00,33.1,17.8,29.69,South,183,0.0,0.0,53,0.08,,-RA,0.08,VWS V14.01,2013-02-26 06:42:00,
2013-02-26 01:47:00,33.1,18.3,29.69,NNE,33,0.0,0.0,54,0.12,,-RA,0.12,VWS V14.01,2013-02-26 06:47:00,
2013-02-26 01:52:00,33.1,18.3,29.69,NNE,33,0.0,0.0,54,0.08,,-RA,0.12,VWS V14.01,2013-02-26 06:52:00,
2013-02-26 01:58:00,33.3,18.9,29.69,SSW,193,0.0,0.0,55,0.08,,-RA,0.12,VWS V14.01,2013-02-26 06:58:00,
2013-02-26 02:03:00,33.3,18.9,29.69,ESE,105,0.0,0.0,55,0.12,,,0.16,VWS V14.01,2013-02-26 07:03:00,
2013-02-26 02:08:00,33.3,18.9,29.69,WNW,301,0.0,0.0,55,0.12,,,0.16,VWS V14.01,2013-02-26 07:08:00,
2013-02-26 02:13:00,33.4,19.4,29.69,WSW,241,0.0,0.0,56,0.12,,,0.16,VWS V14.01,2013-02-26 07:13:00,
2013-02-26 02:18:00,33.3,19.3,29.66,West,263,0.0,0.0,56,0.12,,,0.16,VWS V14.01,2013-02-26 07:18:00,
2013-02-26 02:23:00,33.3,19.3,29.66,NW,319,0.0,0.0,56,0.12,,,0.16,VWS V14.01,2013-02-26 07:23:00,
2013-02-26 02:28:00,33.3,19.7,29.66,West,274,0.0,0.0,57,0.12,,,0.16,VWS V14.01,2013-02-26 07:28:00,
2013-02-26 02:33:00,33.4,20.3,29.66,NNW,336,0.0,0.0,58,0.12,,,0.20,VWS V14.01,2013-02-26 07:33:00,
2013-02-26 02:38:00,33.4,20.3,29.66,WNW,287,0.0,0.0,58,0.16,,,0.24,VWS V14.01,2013-02-26 07:38:00,
2013-02-26 02:43:00,33.4,20.3,29.66,WNW,291,0.0,0.0,58,0.16,,,0.24,VWS V14.01,2013-02-26 07:43:00,
2013-02-26 02:48:00,33.4,20.7,29.66,ENE,71,0.0,0.0,59,0.12,,,0.24,VWS V14.01,2013-02-26 07:48:00,
2013-02-26 02:53:00,33.6,21.2,29.66,SW,232,0.0,0.0,60,0.16,,,0.28,VWS V14.01,2013-02-26 07:53:00,
2013-02-26 02:58:00,33.6,21.2,29.66,SW,232,0.0,0.0,60,0.16,,,0.28,VWS V14.01,2013-02-26 07:58:00,
2013-02-26 03:03:00,33.6,21.2,29.63,WSW,248,0.0,0.0,60,0.12,,,0.28,VWS V14.01,2013-02-26 08:03:00,
2013-02-26 03:08:00,33.6,21.2,29.63,NW,310,0.0,0.0,60,0.20,,,0.35,VWS V14.01,2013-02-26 08:08:00,
2013-02-26 03:14:00,33.6,21.6,29.66,WNW,293,0.0,0.0,61,0.20,,,0.35,VWS V14.01,2013-02-26 08:14:00,
2013-02-26 03:19:00,33.6,21.6,29.66,WNW,293,0.0,0.0,61,0.20,,,0.35,VWS V14.01,2013-02-26 08:19:00,
2013-02-26 03:24:00,33.6,21.6,29.66,NNW,335,0.0,4.0,61,0.28,,,0.43,VWS V14.01,2013-02-26 08:24:00,
2013-02-26 03:29:00,33.6,21.6,29.66,NNW,335,0.0,0.0,61,0.28,,,0.43,VWS V14.01,2013-02-26 08:29:00,
2013-02-26 03:34:00,33.6,21.6,29.66,NNW,339,0.0,0.0,61,0.24,,,0.43,VWS V14.01,2013-02-26 08:34:00,
2013-02-26 03:39:00,33.8,21.8,29.66,NW,315,0.0,0.0,61,0.20,,,0.43,VWS V14.01,2013-02-26 08:39:00,
2013-02-26 03:44:00,33.8,22.2,29.66,North,353,0.0,0.0,62,0.31,,,0.55,VWS V14.01,2013-02-26 08:44:00,
2013-02-26 03:49:00,33.8,22.2,29.66,NNE,15,0.0,0.0,62,0.28,,,0.55,VWS V14.01,2013-02-26 08:49:00,
2013-02-26 03:54:00,34.0,22.7,29.66,SSW,195,0.0,0.0,63,0.31,,,0.59,VWS V14.01,2013-02-26 08:54:00,
2013-02-26 04:00:00,33.8,22.2,29.66,WNW,299,0.0,0.0,62,0.31,,,0.59,VWS V14.01,2013-02-26 09:00:00,
2013-02-26 04:05:00,33.8,22.2,29.66,West,268,0.0,0.0,62,0.31,,FZRA,0.59,VWS V14.01,2013-02-26 09:05:00,
2013-02-26 04:10:00,33.8,22.2,29.66,West,268,0.0,0.0,62,0.28,,FZRA,0.63,VWS V14.01,2013-02-26 09:10:00,
2013-02-26 04:15:00,33.8,22.5,29.66,West,276,0.0,0.0,63,0.28,,FZRA,0.63,VWS V14.01,2013-02-26 09:15:00,
2013-02-26 04:20:00,33.8,22.5,29.63,West,276,0.0,0.0,63,0.28,,FZRA,0.63,VWS V14.01,2013-02-26 09:20:00,
2013-02-26 04:25:00,33.8,22.5,29.63,West,272,0.0,0.0,63,0.20,,FZRA,0.63,VWS V14.01,2013-02-26 09:25:00,
2013-02-26 04:30:00,33.8,22.5,29.63,West,276,0.0,0.0,63,0.24,,FZRA,0.67,VWS V14.01,2013-02-26 09:30:00,
2013-02-26 04:35:00,33.8,22.5,29.63,WSW,258,0.0,0.0,63,0.28,,FZRA,0.71,VWS V14.01,2013-02-26 09:35:00,
2013-02-26 04:40:00,33.8,22.5,29.63,NE,36,0.0,0.0,63,0.28,,FZRA,0.71,VWS V14.01,2013-02-26 09:40:00,
2013-02-26 04:46:00,33.8,22.5,29.63,WNW,282,0.0,0.0,63,0.16,,FZRA,0.71,VWS V14.01,2013-02-26 09:46:00,
2013-02-26 04:51:00,33.8,22.5,29.63,West,278,0.0,0.0,63,0.20,,FZRA,0.75,VWS V14.01,2013-02-26 09:51:00,
2013-02-26 04:56:00,33.8,22.5,29.63,West,278,2.7,2.7,63,0.20,,FZRA,0.79,VWS V14.01,2013-02-26 09:56:00,
2013-02-26 05:01:00,34.0,22.7,29.63,West,270,0.0,0.0,63,0.20,,RA,0.79,VWS V14.01,2013-02-26 10:01:00,
2013-02-26 05:06:00,34.0,22.7,29.63,West,266,3.6,3.6,63,0.16,,RA,0.79,VWS V14.01,2013-02-26 10:06:00,
2013-02-26 05:11:00,34.0,22.7,29.63,WSW,254,3.1,3.1,63,0.16,,RA,0.79,VWS V14.01,2013-02-26 10:11:00,
2013-02-26 05:16:00,33.8,22.5,29.63,SSW,194,0.0,0.0,63,0.16,,RA,0.79,VWS V14.01,2013-02-26 10:16:00,
2013-02-26 05:21:00,33.8,22.5,29.63,SSW,194,0.0,0.0,63,0.20,,RA,0.83,VWS V14.01,2013-02-26 10:21:00,
2013-02-26 05:26:00,33.8,22.5,29.63,SW,223,0.0,0.0,63,0.20,,RA,0.83,VWS V14.01,2013-02-26 10:26:00,
2013-02-26 05:31:00,33.8,22.5,29.63,SW,223,0.0,0.0,63,0.20,,RA,0.87,VWS V14.01,2013-02-26 10:31:00,
2013-02-26 05:37:00,33.6,22.8,29.60,WSW,255,0.0,0.0,64,0.16,,RA,0.87,VWS V14.01,2013-02-26 10:37:00,
2013-02-26 05:42:00,33.6,22.8,29.60,North,0,0.0,0.0,64,0.16,,RA,0.87,VWS V14.01,2013-02-26 10:42:00,
2013-02-26 05:47:00,33.4,22.6,29.60,WSW,247,6.3,6.3,64,0.16,,RA,0.87,VWS V14.01,2013-02-26 10:47:00,
2013-02-26 05:52:00,33.4,22.6,29.60,West,260,0.0,0.0,64,0.12,,RA,0.87,VWS V14.01,2013-02-26 10:52:00,
2013-02-26 05:57:00,33.4,22.6,29.60,West,260,0.0,0.0,64,0.12,,RA,0.91,VWS V14.01,2013-02-26 10:57:00,
2013-02-26 06:02:00,33.4,23.0,29.60,WSW,253,0.0,0.0,65,0.16,,RA,0.94,VWS V14.01,2013-02-26 11:02:00,
2013-02-26 06:07:00,33.4,23.0,29.60,West,261,3.1,3.1,65,0.20,,RA,0.98,VWS V14.01,2013-02-26 11:07:00,
2013-02-26 06:12:00,33.4,23.0,29.60,West,265,2.2,2.2,65,0.20,,RA,0.98,VWS V14.01,2013-02-26 11:12:00,
2013-02-26 06:17:00,33.6,23.5,29.60,WSW,257,2.7,2.7,66,0.24,,RA,1.02,VWS V14.01,2013-02-26 11:17:00,
2013-02-26 06:22:00,33.6,23.5,29.60,WSW,257,2.7,2.7,66,0.24,,RA,1.06,VWS V14.01,2013-02-26 11:22:00,
2013-02-26 06:27:00,33.6,23.5,29.60,WSW,256,0.0,0.0,66,0.24,,RA,1.10,VWS V14.01,2013-02-26 11:27:00,
2013-02-26 06:32:00,33.6,23.5,29.60,West,272,0.0,0.0,66,0.24,,RA,1.10,VWS V14.01,2013-02-26 11:32:00,
2013-02-26 06:37:00,33.6,23.5,29.60,West,270,0.0,0.0,66,0.28,,RA,1.14,VWS V14.01,2013-02-26 11:37:00,
2013-02-26 06:43:00,33.8,23.7,29.60,West,272,3.6,3.6,66,0.31,,RA,1.18,VWS V14.01,2013-02-26 11:43:00,
2013-02-26 06:48:00,33.8,23.7,29.57,West,259,2.7,2.7,66,0.31,,RA,1.18,VWS V14.01,2013-02-26 11:48:00,
2013-02-26 06:53:00,33.8,23.7,29.57,West,260,4.9,4.9,66,0.39,,RA,1.26,VWS V14.01,2013-02-26 11:53:00,
2013-02-26 06:58:00,33.8,24.0,29.57,ESE,113,0.0,0.0,67,0.35,,RA,1.26,VWS V14.01,2013-02-26 11:58:00,
2013-02-26 07:03:00,33.6,23.9,29.57,ESE,113,0.0,0.0,67,0.35,,RA,1.30,VWS V14.01,2013-02-26 12:03:00,
2013-02-26 07:08:00,33.6,23.9,29.57,West,266,3.6,3.6,67,0.35,,RA,1.34,VWS V14.01,2013-02-26 12:08:00,
2013-02-26 07:13:00,33.6,23.9,29.57,WSW,256,0.0,0.0,67,0.39,,RA,1.38,VWS V14.01,2013-02-26 12:13:00,
2013-02-26 07:18:00,33.6,24.2,29.57,West,261,2.7,2.7,68,0.35,,RA,1.38,VWS V14.01,2013-02-26 12:18:00,
2013-02-26 07:23:00,33.6,24.2,29.57,SSE,154,3.6,3.6,68,0.35,,RA,1.42,VWS V14.01,2013-02-26 12:23:00,
2013-02-26 07:28:00,33.6,24.2,29.57,SSE,154,3.6,3.6,68,0.35,,RA,1.46,VWS V14.01,2013-02-26 12:28:00,
2013-02-26 07:34:00,33.6,24.2,29.54,WSW,252,0.0,0.0,68,0.39,,RA,1.50,VWS V14.01,2013-02-26 12:34:00,
2013-02-26 07:39:00,33.8,24.4,29.54,West,276,2.7,3.1,68,0.39,,RA,1.54,VWS V14.01,2013-02-26 12:39:00,
2013-02-26 07:44:00,33.8,24.4,29.57,WSW,244,0.0,0.0,68,0.35,,RA,1.54,VWS V14.01,2013-02-26 12:44:00,
2013-02-26 07:49:00,33.8,24.4,29.57,West,268,3.1,3.1,68,0.39,,RA,1.57,VWS V14.01,2013-02-26 12:49:00,
2013-02-26 07:54:00,33.8,24.4,29.57,WNW,283,0.0,0.0,68,0.35,,RA,1.61,VWS V14.01,2013-02-26 12:54:00,
2013-02-26 07:59:00,33.8,24.4,29.57,West,266,0.0,0.0,68,0.31,,RA,1.61,VWS V14.01,2013-02-26 12:59:00,
2013-02-26 08:04:00,33.8,24.4,29.57,West,260,0.0,0.0,68,0.35,, +RA,1.65,VWS V14.01,2013-02-26 13:04:00,
2013-02-26 08:09:00,33.8,24.4,29.57,WSW,255,0.0,0.0,68,0.35,, +RA,1.69,VWS V14.01,2013-02-26 13:09:00,
2013-02-26 08:14:00,33.8,24.4,29.54,WSW,255,2.2,2.2,68,0.31,, +RA,1.69,VWS V14.01,2013-02-26 13:14:00,
2013-02-26 08:19:00,34.0,24.5,29.54,West,278,4.0,4.0,68,0.31,, +RA,1.69,VWS V14.01,2013-02-26 13:19:00,
2013-02-26 08:25:00,34.0,24.5,29.54,SE,131,0.0,2.7,68,0.28,, +RA,1.69,VWS V14.01,2013-02-26 13:25:00,
2013-02-26 08:30:00,34.0,24.9,29.54,SE,131,2.2,2.2,69,0.28,, +RA,1.73,VWS V14.01,2013-02-26 13:30:00,
2013-02-26 08:35:00,34.2,25.1,29.54,SE,131,0.0,0.0,69,0.24,, +RA,1.73,VWS V14.01,2013-02-26 13:35:00,
2013-02-26 08:40:00,34.2,25.1,29.54,SE,131,0.0,0.0,69,0.20,, +RA,1.73,VWS V14.01,2013-02-26 13:40:00,
2013-02-26 08:45:00,34.2,24.7,29.54,SE,131,0.0,0.0,68,0.24,, +RA,1.77,VWS V14.01,2013-02-26 13:45:00,
2013-02-26 08:51:00,34.2,24.7,29.54,West,261,0.0,2.7,68,0.24,, +RA,1.81,VWS V14.01,2013-02-26 13:51:00,
2013-02-26 08:56:00,34.2,24.7,29.54,WSW,258,0.0,0.0,68,0.20,, +RA,1.81,VWS V14.01,2013-02-26 13:56:00,
2013-02-26 09:01:00,34.3,25.2,29.54,West,263,0.0,0.0,69,0.20,,RA,1.85,VWS V14.01,2013-02-26 14:01:00,
2013-02-26 09:06:00,34.3,24.9,29.54,SW,236,0.0,0.0,68,0.20,,RA,1.85,VWS V14.01,2013-02-26 14:06:00,
2013-02-26 09:11:00,34.3,24.9,29.54,SW,236,0.0,0.0,68,0.20,,RA,1.89,VWS V14.01,2013-02-26 14:11:00,
2013-02-26 09:17:00,34.3,24.9,29.54,SW,226,3.1,3.1,68,0.20,,RA,1.89,VWS V14.01,2013-02-26 14:17:00,
2013-02-26 09:22:00,34.3,24.9,29.54,West,278,0.0,0.0,68,0.20,,RA,1.89,VWS V14.01,2013-02-26 14:22:00,
2013-02-26 09:27:00,34.5,25.4,29.54,West,269,2.2,3.6,69,0.24,,RA,1.93,VWS V14.01,2013-02-26 14:27:00,
2013-02-26 09:32:00,34.5,25.4,29.54,West,271,2.2,2.2,69,0.20,,RA,1.93,VWS V14.01,2013-02-26 14:32:00,
2013-02-26 09:37:00,34.5,25.4,29.54,West,270,0.0,0.0,69,0.20,,RA,1.93,VWS V14.01,2013-02-26 14:37:00,
2013-02-26 09:42:00,34.5,25.4,29.54,West,270,2.2,2.2,69,0.20,,RA,1.93,VWS V14.01,2013-02-26 14:42:00,
2013-02-26 09:47:00,34.9,25.8,29.52,WSW,252,2.2,2.2,69,0.20,,RA,1.97,VWS V14.01,2013-02-26 14:47:00,
2013-02-26 09:53:00,34.9,25.8,29.52,WSW,252,4.9,4.9,69,0.16,,RA,1.97,VWS V14.01,2013-02-26 14:53:00,
2013-02-26 09:58:00,34.9,25.8,29.52,West,265,0.0,0.0,69,0.16,,RA,1.97,VWS V14.01,2013-02-26 14:58:00,
2013-02-26 10:03:00,34.9,25.8,29.52,West,267,0.0,0.0,69,0.20,,-RA,2.05,VWS V14.01,2013-02-26 15:03:00,
2013-02-26 10:08:00,35.1,25.9,29.52,SW,233,0.0,0.0,69,0.20,,-RA,2.05,VWS V14.01,2013-02-26 15:08:00,
2013-02-26 10:13:00,35.1,25.9,29.52,WSW,245,4.0,4.0,69,0.16,,-RA,2.05,VWS V14.01,2013-02-26 15:13:00,
2013-02-26 10:18:00,35.2,26.1,29.49,WSW,246,0.0,0.0,69,0.16,,-RA,2.05,VWS V14.01,2013-02-26 15:18:00,
2013-02-26 10:23:00,35.4,26.3,29.49,West,259,0.0,0.0,69,0.16,,-RA,2.05,VWS V14.01,2013-02-26 15:23:00,
2013-02-26 10:28:00,35.4,26.3,29.49,WSW,239,3.1,3.1,69,0.16,,-RA,2.09,VWS V14.01,2013-02-26 15:28:00,
2013-02-26 10:33:00,35.4,26.3,29.49,West,259,2.2,2.2,69,0.16,,-RA,2.09,VWS V14.01,2013-02-26 15:33:00,
2013-02-26 10:38:00,35.6,26.5,29.49,WSW,248,0.0,0.0,69,0.16,,-RA,2.09,VWS V14.01,2013-02-26 15:38:00,
2013-02-26 10:43:00,35.6,26.5,29.49,SSE,161,0.0,0.0,69,0.16,,-RA,2.09,VWS V14.01,2013-02-26 15:43:00,
2013-02-26 10:48:00,36.0,26.8,29.49,SSW,192,0.0,0.0,69,0.12,,-RA,2.09,VWS V14.01,2013-02-26 15:48:00,
2013-02-26 10:54:00,36.1,27.0,29.49,WSW,243,0.0,2.2,69,0.16,,-RA,2.13,VWS V14.01,2013-02-26 15:54:00,
2013-02-26 10:59:00,36.1,27.0,29.49,SW,231,0.0,3.1,69,0.16,,-RA,2.13,VWS V14.01,2013-02-26 15:59:00,
2013-02-26 11:04:00,36.1,27.0,29.49,West,266,2.7,2.7,69,0.08,,-RA,2.13,VWS V14.01,2013-02-26 16:04:00,
2013-02-26 11:09:00,36.1,26.6,29.49,West,277,2.2,2.2,68,0.08,,-RA,2.13,VWS V14.01,2013-02-26 16:09:00,
2013-02-26 11:14:00,36.1,27.0,29.49,WSW,242,0.0,0.0,69,0.08,,-RA,2.13,VWS V14.01,2013-02-26 16:14:00,
2013-02-26 11:19:00,36.1,26.6,29.49,WSW,242,0.0,0.0,68,0.08,,-RA,2.13,VWS V14.01,2013-02-26 16:19:00,
2013-02-26 11:24:00,36.1,26.6,29.49,West,280,3.6,3.6,68,0.08,,-RA,2.13,VWS V14.01,2013-02-26 16:24:00,
2013-02-26 11:30:00,35.8,25.9,29.49,WNW,283,0.0,0.0,67,0.08,,-RA,2.17,VWS V14.01,2013-02-26 16:30:00,
2013-02-26 11:35:00,35.8,26.3,29.49,WSW,241,0.0,0.0,68,0.08,,-RA,2.17,VWS V14.01,2013-02-26 16:35:00,
2013-02-26 11:40:00,35.8,26.3,29.49,SE,137,0.0,3.6,68,0.08,,-RA,2.17,VWS V14.01,2013-02-26 16:40:00,
2013-02-26 11:45:00,35.6,25.7,29.49,West,263,0.0,0.0,67,0.12,,-RA,2.20,VWS V14.01,2013-02-26 16:45:00,
2013-02-26 11:50:00,35.6,25.7,29.49,NNE,24,3.1,4.0,67,0.12,,-RA,2.20,VWS V14.01,2013-02-26 16:50:00,
2013-02-26 11:55:00,35.4,25.6,29.46,North,6,2.2,2.2,67,0.12,,-RA,2.24,VWS V14.01,2013-02-26 16:55:00,
2013-02-26 12:00:00,35.4,25.6,29.46,NNW,333,0.0,3.6,67,0.12,,-RA,2.24,VWS V14.01,2013-02-26 17:00:00,
2013-02-26 12:05:00,35.6,26.1,29.49,WNW,297,2.7,2.7,68,0.12,,-RA,2.24,VWS V14.01,2013-02-26 17:05:00,
2013-02-26 12:10:00,35.6,25.7,29.49,SW,226,3.6,3.6,67,0.16,,-RA,2.28,VWS V14.01,2013-02-26 17:10:00,
2013-02-26 12:15:00,35.6,25.7,29.49,SE,138,2.2,2.2,67,0.16,,-RA,2.28,VWS V14.01,2013-02-26 17:15:00,
2013-02-26 12:21:00,35.6,25.7,29.46,NE,43,2.7,2.7,67,0.16,,-RA,2.28,VWS V14.01,2013-02-26 17:21:00,
2013-02-26 12:26:00,35.6,25.7,29.46,NW,318,0.0,2.7,67,0.16,,-RA,2.28,VWS V14.01,2013-02-26 17:26:00,
2013-02-26 12:31:00,35.8,26.3,29.46,WNW,285,0.0,0.0,68,0.16,,-RA,2.32,VWS V14.01,2013-02-26 17:31:00,
2013-02-26 12:36:00,36.0,26.4,29.46,WNW,287,3.1,3.1,68,0.16,,-RA,2.32,VWS V14.01,2013-02-26 17:36:00,
2013-02-26 12:41:00,36.1,26.6,29.46,NW,318,0.0,0.0,68,0.16,,-RA,2.32,VWS V14.01,2013-02-26 17:41:00,
2013-02-26 12:46:00,36.1,26.6,29.46,WNW,300,0.0,0.0,68,0.12,,-RA,2.32,VWS V14.01,2013-02-26 17:46:00,
2013-02-26 12:51:00,36.3,26.8,29.46,WSW,243,2.7,2.7,68,0.12,,-RA,2.32,VWS V14.01,2013-02-26 17:51:00,
2013-02-26 12:56:00,36.5,27.0,29.46,WNW,289,0.0,0.0,68,0.08,,-RA,2.32,VWS V14.01,2013-02-26 17:56:00,
2013-02-26 13:02:00,36.9,27.3,29.46,NW,314,0.0,0.0,68,0.08,,-RA,2.32,VWS V14.01,2013-02-26 18:02:00,
2013-02-26 13:07:00,36.9,27.3,29.46,NW,309,2.2,3.6,68,0.08,,-RA,2.32,VWS V14.01,2013-02-26 18:07:00,
2013-02-26 13:12:00,36.9,27.3,29.46,WNW,294,0.0,0.0,68,0.04,,-RA,2.32,VWS V14.01,2013-02-26 18:12:00,
2013-02-26 13:17:00,36.9,27.3,29.43,WNW,294,0.0,0.0,68,0.04,,-RA,2.32,VWS V14.01,2013-02-26 18:17:00,
2013-02-26 13:22:00,37.2,27.6,29.43,West,279,0.0,3.1,68,0.04,,-RA,2.32,VWS V14.01,2013-02-26 18:22:00,
2013-02-26 13:27:00,37.4,27.5,29.43,NE,54,0.0,0.0,67,0.04,,-RA,2.32,VWS V14.01,2013-02-26 18:27:00,
2013-02-26 13:32:00,37.4,27.5,29.43,NW,304,0.0,0.0,67,0.00,,-RA,2.32,VWS V14.01,2013-02-26 18:32:00,
2013-02-26 13:38:00,37.4,27.5,29.43,NW,323,0.0,0.0,67,0.00,,-RA,2.32,VWS V14.01,2013-02-26 18:38:00,
2013-02-26 13:43:00,37.4,27.5,29.43,North,353,2.7,2.7,67,0.00,,-RA,2.32,VWS V14.01,2013-02-26 18:43:00,
2013-02-26 13:48:00,37.4,26.7,29.43,North,353,0.0,0.0,65,0.00,,-RA,2.32,VWS V14.01,2013-02-26 18:48:00,
2013-02-26 13:54:00,37.4,26.4,29.43,North,353,0.0,0.0,64,0.00,,-RA,2.32,VWS V14.01,2013-02-26 18:54:00,
2013-02-26 13:59:00,37.4,26.4,29.43,North,353,0.0,0.0,64,0.00,,-RA,2.32,VWS V14.01,2013-02-26 18:59:00,
2013-02-26 14:04:00,37.4,26.4,29.43,North,353,0.0,0.0,64,0.00,,-RA,2.32,VWS V14.01,2013-02-26 19:04:00,
2013-02-26 14:09:00,37.9,26.9,29.43,North,353,0.0,0.0,64,0.00,,-RA,2.32,VWS V14.01,2013-02-26 19:09:00,
2013-02-26 14:14:00,38.1,27.0,29.43,NNE,33,0.0,0.0,64,0.00,,-RA,2.32,VWS V14.01,2013-02-26 19:14:00,
2013-02-26 14:19:00,38.1,27.0,29.40,NNE,33,0.0,0.0,64,0.00,,-RA,2.32,VWS V14.01,2013-02-26 19:19:00,
2013-02-26 14:24:00,38.3,26.8,29.40,NNE,33,0.0,0.0,63,0.00,,-RA,2.32,VWS V14.01,2013-02-26 19:24:00,
2013-02-26 14:30:00,38.3,26.8,29.40,NNE,33,0.0,0.0,63,0.00,,-RA,2.32,VWS V14.01,2013-02-26 19:30:00,
2013-02-26 14:35:00,39.6,28.8,29.40,NNE,33,0.0,0.0,65,0.00,,-RA,2.32,VWS V14.01,2013-02-26 19:35:00,
2013-02-26 14:40:00,40.1,29.3,29.40,NNE,33,0.0,0.0,65,0.00,,-RA,2.32,VWS V14.01,2013-02-26 19:40:00,
2013-02-26 14:45:00,40.3,29.5,29.40,NNE,33,0.0,0.0,65,0.00,,-RA,2.32,VWS V14.01,2013-02-26 19:45:00,
2013-02-26 14:50:00,40.8,30.0,29.40,NNE,33,0.0,0.0,65,0.00,,-RA,2.32,VWS V14.01,2013-02-26 19:50:00,
2013-02-26 14:55:00,40.8,30.0,29.40,ESE,122,0.0,0.0,65,0.00,,-RA,2.32,VWS V14.01,2013-02-26 19:55:00,
2013-02-26 15:00:00,41.2,29.6,29.40,ESE,122,0.0,0.0,63,0.00,,,2.32,VWS V14.01,2013-02-26 20:00:00,
2013-02-26 15:05:00,41.2,29.6,29.40,South,182,0.0,0.0,63,0.00,,,2.32,VWS V14.01,2013-02-26 20:05:00,
2013-02-26 15:10:00,41.2,29.6,29.40,SSE,163,0.0,0.0,63,0.00,,,2.32,VWS V14.01,2013-02-26 20:10:00,
2013-02-26 15:15:00,41.2,29.6,29.40,South,169,0.0,0.0,63,0.00,,,2.32,VWS V14.01,2013-02-26 20:15:00,
2013-02-26 15:21:00,41.4,29.7,29.40,South,169,0.0,0.0,63,0.00,,,2.32,VWS V14.01,2013-02-26 20:21:00,
2013-02-26 15:26:00,41.4,29.7,29.40,SSE,147,0.0,0.0,63,0.00,,,2.32,VWS V14.01,2013-02-26 20:26:00,
2013-02-26 15:31:00,41.2,29.2,29.40,SSW,203,2.7,2.7,62,0.00,,,2.32,VWS V14.01,2013-02-26 20:31:00,
2013-02-26 15:36:00,41.2,29.2,29.40,SSW,210,0.0,0.0,62,0.00,,,2.32,VWS V14.01,2013-02-26 20:36:00,
2013-02-26 15:41:00,41.2,29.2,29.40,SW,224,0.0,0.0,62,0.00,,,2.32,VWS V14.01,2013-02-26 20:41:00,
2013-02-26 15:46:00,41.2,29.6,29.40,SSE,157,0.0,2.2,63,0.00,,,2.32,VWS V14.01,2013-02-26 20:46:00,
2013-02-26 15:51:00,41.0,29.4,29.40,SW,233,0.0,0.0,63,0.00,,,2.32,VWS V14.01,2013-02-26 20:51:00,
2013-02-26 15:56:00,41.2,29.6,29.40,South,178,4.5,4.5,63,0.00,,,2.32,VWS V14.01,2013-02-26 20:56:00,
2013-02-26 16:01:00,41.2,29.6,29.40,SSW,208,0.0,0.0,63,0.00,,,2.32,VWS V14.01,2013-02-26 21:01:00,
2013-02-26 16:06:00,41.5,30.3,29.40,SSW,206,0.0,0.0,64,0.00,,,2.32,VWS V14.01,2013-02-26 21:06:00,
2013-02-26 16:12:00,41.5,30.3,29.40,SW,219,0.0,0.0,64,0.00,,,2.32,VWS V14.01,2013-02-26 21:12:00,
2013-02-26 16:17:00,41.5,30.3,29.40,SSW,212,2.7,2.7,64,0.00,,,2.32,VWS V14.01,2013-02-26 21:17:00,
2013-02-26 16:22:00,41.5,30.3,29.40,SW,218,3.1,3.1,64,0.00,,,2.32,VWS V14.01,2013-02-26 21:22:00,
2013-02-26 16:27:00,41.0,29.0,29.40,SSE,158,0.0,0.0,62,0.00,,,2.32,VWS V14.01,2013-02-26 21:27:00,
2013-02-26 16:32:00,40.6,27.9,29.40,ESE,120,2.7,2.7,60,0.00,,,2.32,VWS V14.01,2013-02-26 21:32:00,
2013-02-26 16:37:00,40.6,28.3,29.40,SE,146,0.0,4.9,61,0.00,,,2.32,VWS V14.01,2013-02-26 21:37:00,
2013-02-26 16:42:00,40.5,28.1,29.40,SSE,157,0.0,2.2,61,0.00,,,2.32,VWS V14.01,2013-02-26 21:42:00,
2013-02-26 16:47:00,40.5,28.1,29.40,South,181,2.2,2.2,61,0.00,,,2.32,VWS V14.01,2013-02-26 21:47:00,
2013-02-26 16:52:00,40.1,27.8,29.40,SSW,213,2.7,5.4,61,0.00,,,2.32,VWS V14.01,2013-02-26 21:52:00,
2013-02-26 16:58:00,39.7,27.4,29.40,SW,226,0.0,0.0,61,0.00,,,2.32,VWS V14.01,2013-02-26 21:58:00,
2013-02-26 17:03:00,39.6,27.2,29.40,SW,215,3.6,3.6,61,0.04,,OVC011,2.36,VWS V14.01,2013-02-26 22:03:00,
2013-02-26 17:08:00,39.6,27.2,29.40,SSE,165,0.0,0.0,61,0.04,,OVC011,2.36,VWS V14.01,2013-02-26 22:08:00,
2013-02-26 17:13:00,39.7,28.2,29.40,SSE,165,3.1,3.1,63,0.04,,OVC011,2.36,VWS V14.01,2013-02-26 22:13:00,
2013-02-26 17:18:00,39.7,28.2,29.40,SSE,165,0.0,0.0,63,0.04,,OVC011,2.36,VWS V14.01,2013-02-26 22:18:00,
2013-02-26 17:23:00,39.9,28.4,29.40,SSE,165,0.0,0.0,63,0.04,,OVC011,2.36,VWS V14.01,2013-02-26 22:23:00,
2013-02-26 17:28:00,39.9,28.4,29.40,SSE,165,0.0,0.0,63,0.04,,OVC011,2.36,VWS V14.01,2013-02-26 22:28:00,
2013-02-26 17:33:00,39.9,28.4,29.40,SSE,165,0.0,0.0,63,0.04,,OVC011,2.36,VWS V14.01,2013-02-26 22:33:00,
2013-02-26 17:38:00,39.6,27.6,29.40,SSE,165,0.0,0.0,62,0.04,,OVC011,2.36,VWS V14.01,2013-02-26 22:38:00,
2013-02-26 17:43:00,39.4,27.5,29.40,WSW,258,0.0,0.0,62,0.04,,OVC011,2.36,VWS V14.01,2013-02-26 22:43:00,
2013-02-26 17:48:00,39.6,28.0,29.43,WSW,258,0.0,0.0,63,0.04,,OVC011,2.36,VWS V14.01,2013-02-26 22:48:00,
2013-02-26 17:53:00,39.7,28.6,29.43,WSW,258,0.0,0.0,64,0.04,,OVC011,2.36,VWS V14.01,2013-02-26 22:53:00,
2013-02-26 17:58:00,39.9,28.8,29.43,West,278,0.0,0.0,64,0.04,,OVC011,2.36,VWS V14.01,2013-02-26 22:58:00,
2013-02-26 18:03:00,39.9,28.8,29.43,West,278,0.0,0.0,64,0.00,,OVC007,2.36,VWS V14.01,2013-02-26 23:03:00,
2013-02-26 18:08:00,39.9,28.8,29.43,SW,230,2.2,2.2,64,0.00,,OVC007,2.36,VWS V14.01,2013-02-26 23:08:00,
2013-02-26 18:14:00,39.9,28.8,29.43,West,280,0.0,2.2,64,0.00,,OVC007,2.36,VWS V14.01,2013-02-26 23:14:00,
2013-02-26 18:19:00,40.1,29.3,29.43,West,260,0.0,0.0,65,0.00,,OVC007,2.36,VWS V14.01,2013-02-26 23:19:00,
2013-02-26 18:24:00,40.3,29.5,29.43,WSW,252,2.7,2.7,65,0.00,,OVC007,2.36,VWS V14.01,2013-02-26 23:24:00,
2013-02-26 18:29:00,40.5,30.0,29.43,WSW,249,0.0,0.0,66,0.00,,OVC007,2.36,VWS V14.01,2013-02-26 23:29:00,
2013-02-26 18:34:00,40.5,30.0,29.40,SE,128,0.0,0.0,66,0.00,,OVC007,2.36,VWS V14.01,2013-02-26 23:34:00,
2013-02-26 18:39:00,40.5,29.6,29.40,West,265,0.0,3.6,65,0.00,,OVC007,2.36,VWS V14.01,2013-02-26 23:39:00,
2013-02-26 18:44:00,40.5,29.6,29.40,West,275,0.0,0.0,65,0.00,,OVC007,2.36,VWS V14.01,2013-02-26 23:44:00,
2013-02-26 18:49:00,40.3,29.5,29.43,West,275,0.0,0.0,65,0.00,,OVC007,2.36,VWS V14.01,2013-02-26 23:49:00,
2013-02-26 18:54:00,40.3,29.5,29.43,SW,230,0.0,0.0,65,0.00,,OVC007,2.36,VWS V14.01,2013-02-26 23:54:00,
2013-02-26 18:59:00,40.1,28.9,29.43,SSE,157,0.0,0.0,64,0.00,,OVC007,2.36,VWS V14.01,2013-02-26 23:59:00,
2013-02-26 19:04:00,40.1,29.3,29.43,SW,224,0.0,0.0,65,0.00,,OVC007,2.36,VWS V14.01,2013-02-27 00:04:00,
2013-02-26 19:09:00,40.1,29.3,29.43,SW,225,0.0,0.0,65,0.00,,OVC007,2.36,VWS V14.01,2013-02-27 00:09:00,
2013-02-26 19:15:00,40.1,29.3,29.43,SW,229,0.0,0.0,65,0.00,,OVC007,2.36,VWS V14.01,2013-02-27 00:15:00,
2013-02-26 19:20:00,39.9,28.8,29.43,SW,224,0.0,0.0,64,0.00,,OVC007,2.36,VWS V14.01,2013-02-27 00:20:00,
2013-02-26 19:25:00,39.7,28.6,29.43,SW,218,0.0,0.0,64,0.00,,OVC007,2.36,VWS V14.01,2013-02-27 00:25:00,
2013-02-26 19:30:00,39.4,27.9,29.43,West,278,4.9,4.9,63,0.00,,OVC007,2.36,VWS V14.01,2013-02-27 00:30:00,
2013-02-26 19:35:00,39.0,27.5,29.43,SW,217,0.0,0.0,63,0.00,,OVC007,2.36,VWS V14.01,2013-02-27 00:35:00,
2013-02-26 19:40:00,38.8,27.3,29.43,SW,217,0.0,0.0,63,0.00,,OVC007,2.36,VWS V14.01,2013-02-27 00:40:00,
2013-02-26 19:45:00,38.5,26.6,29.43,WSW,248,2.7,2.7,62,0.00,,OVC007,2.36,VWS V14.01,2013-02-27 00:45:00,
2013-02-26 19:51:00,38.3,26.4,29.43,SW,229,2.2,2.2,62,0.00,,OVC007,2.36,VWS V14.01,2013-02-27 00:51:00,
2013-02-26 19:56:00,38.1,26.6,29.43,WSW,247,0.0,0.0,63,0.00,,OVC007,2.36,VWS V14.01,2013-02-27 00:56:00,
2013-02-26 20:01:00,38.3,27.2,29.43,SSW,205,5.4,5.4,64,0.00,,OVC005,2.36,VWS V14.01,2013-02-27 01:01:00,
2013-02-26 20:06:00,38.3,27.6,29.46,SSW,192,2.7,2.7,65,0.00,,OVC005,2.36,VWS V14.01,2013-02-27 01:06:00,
2013-02-26 20:11:00,38.5,27.8,29.46,WSW,242,0.0,0.0,65,0.00,,OVC005,2.36,VWS V14.01,2013-02-27 01:11:00,
2013-02-26 20:16:00,38.5,27.8,29.46,SSE,160,3.1,3.1,65,0.00,,OVC005,2.36,VWS V14.01,2013-02-27 01:16:00,
2013-02-26 20:21:00,38.5,25.8,29.46,SSW,203,4.0,4.0,60,0.00,,OVC005,2.36,VWS V14.01,2013-02-27 01:21:00,
2013-02-26 20:26:00,38.3,25.2,29.46,SE,127,0.0,2.7,59,0.00,,OVC005,2.36,VWS V14.01,2013-02-27 01:26:00,
2013-02-26 20:31:00,38.3,21.8,29.46,SSE,167,3.1,3.1,51,0.00,,OVC005,2.36,VWS V14.01,2013-02-27 01:31:00,
2013-02-26 20:37:00,38.3,21.3,29.46,WNW,297,0.0,0.0,50,0.00,,OVC005,2.36,VWS V14.01,2013-02-27 01:37:00,
2013-02-26 20:42:00,37.9,19.5,29.46,SW,222,0.0,3.6,47,0.00,,OVC005,2.36,VWS V14.01,2013-02-27 01:42:00,
2013-02-26 20:47:00,37.9,18.5,29.46,SSW,202,2.7,9.6,45,0.00,,OVC005,2.36,VWS V14.01,2013-02-27 01:47:00,
2013-02-26 20:52:00,37.0,15.5,29.46,West,263,0.0,0.0,41,0.00,,OVC005,2.36,VWS V14.01,2013-02-27 01:52:00,
2013-02-26 20:57:00,36.5,15.1,29.46,West,266,2.2,2.7,41,0.00,,OVC005,2.36,VWS V14.01,2013-02-27 01:57:00,
2013-02-26 21:02:00,36.3,15.4,29.46,South,173,2.2,2.7,42,0.00,,SCT003,2.36,VWS V14.01,2013-02-27 02:02:00,
2013-02-26 21:07:00,36.3,15.4,29.46,East,82,2.7,4.0,42,0.00,,SCT003,2.36,VWS V14.01,2013-02-27 02:07:00,
2013-02-26 21:12:00,36.7,15.8,29.46,South,175,2.2,2.2,42,0.00,,SCT003,2.36,VWS V14.01,2013-02-27 02:12:00,
2013-02-26 21:17:00,36.7,15.2,29.46,WSW,256,0.0,0.0,41,0.00,,SCT003,2.36,VWS V14.01,2013-02-27 02:17:00,
2013-02-26 21:22:00,36.3,14.9,29.46,West,278,0.0,0.0,41,0.00,,SCT003,2.36,VWS V14.01,2013-02-27 02:22:00,
2013-02-26 21:27:00,36.1,14.2,29.46,West,263,5.4,5.4,40,0.00,,SCT003,2.36,VWS V14.01,2013-02-27 02:27:00,
2013-02-26 21:33:00,36.5,14.5,29.46,South,187,5.4,5.4,40,0.00,,SCT003,2.36,VWS V14.01,2013-02-27 02:33:00,
2013-02-26 21:38:00,36.5,14.5,29.46,West,278,3.1,3.1,40,0.00,,SCT003,2.36,VWS V14.01,2013-02-27 02:38:00,
2013-02-26 21:43:00,36.3,14.3,29.46,SW,236,2.7,2.7,40,0.00,,SCT003,2.36,VWS V14.01,2013-02-27 02:43:00,
2013-02-26 21:48:00,36.3,13.8,29.46,WNW,303,4.0,4.0,39,0.00,,SCT003,2.36,VWS V14.01,2013-02-27 02:48:00,
2013-02-26 21:53:00,36.3,13.8,29.46,WSW,243,2.2,4.0,39,0.00,,SCT003,2.36,VWS V14.01,2013-02-27 02:53:00,
2013-02-26 21:58:00,36.1,13.6,29.46,West,275,2.2,2.2,39,0.00,,SCT003,2.36,VWS V14.01,2013-02-27 02:58:00,
2013-02-26 22:03:00,35.6,13.1,29.46,West,275,0.0,0.0,39,0.00,,,2.36,VWS V14.01,2013-02-27 03:03:00,
2013-02-26 22:08:00,35.6,13.1,29.46,WNW,303,3.6,3.6,39,0.00,,,2.36,VWS V14.01,2013-02-27 03:08:00,
2013-02-26 22:13:00,35.2,13.4,29.46,NNW,341,0.0,0.0,40,0.00,,,2.36,VWS V14.01,2013-02-27 03:13:00,
2013-02-26 22:18:00,35.2,13.4,29.46,WNW,302,0.0,0.0,40,0.00,,,2.36,VWS V14.01,2013-02-27 03:18:00,
2013-02-26 22:24:00,35.1,13.2,29.46,WNW,302,0.0,0.0,40,0.00,,,2.36,VWS V14.01,2013-02-27 03:24:00,
2013-02-26 22:29:00,34.9,13.6,29.46,WNW,302,0.0,0.0,41,0.00,,,2.36,VWS V14.01,2013-02-27 03:29:00,
2013-02-26 22:34:00,34.7,13.4,29.43,WNW,302,0.0,0.0,41,0.00,,,2.36,VWS V14.01,2013-02-27 03:34:00,
2013-02-26 22:39:00,34.5,13.3,29.43,WNW,302,0.0,0.0,41,0.00,,,2.36,VWS V14.01,2013-02-27 03:39:00,
2013-02-26 22:44:00,34.5,13.8,29.43,WNW,302,0.0,0.0,42,0.00,,,2.36,VWS V14.01,2013-02-27 03:44:00,
2013-02-26 22:49:00,34.5,13.8,29.43,WNW,302,0.0,0.0,42,0.00,,,2.36,VWS V14.01,2013-02-27 03:49:00,
2013-02-26 22:54:00,34.7,14.5,29.43,WNW,298,0.0,0.0,43,0.00,,,2.36,VWS V14.01,2013-02-27 03:54:00,
2013-02-26 22:59:00,34.9,15.2,29.43,NW,321,2.7,2.7,44,0.00,,,2.36,VWS V14.01,2013-02-27 03:59:00,
2013-02-26 23:04:00,34.9,15.2,29.43,West,267,3.1,3.1,44,0.00,,,2.36,VWS V14.01,2013-02-27 04:04:00,
2013-02-26 23:09:00,35.1,15.4,29.46,WNW,286,0.0,0.0,44,0.00,,,2.36,VWS V14.01,2013-02-27 04:09:00,
2013-02-26 23:14:00,35.4,15.7,29.46,SSE,166,0.0,0.0,44,0.00,,,2.36,VWS V14.01,2013-02-27 04:14:00,
2013-02-26 23:19:00,35.2,15.0,29.46,WNW,284,0.0,0.0,43,0.00,,,2.36,VWS V14.01,2013-02-27 04:19:00,
2013-02-26 23:24:00,35.2,13.4,29.46,WSW,258,3.1,3.1,40,0.00,,,2.36,VWS V14.01,2013-02-27 04:24:00,
2013-02-26 23:29:00,34.9,13.0,29.46,West,274,4.0,4.0,40,0.00,,,2.36,VWS V14.01,2013-02-27 04:29:00,
2013-02-26 23:34:00,34.5,12.7,29.46,West,277,3.1,4.9,40,0.00,,,2.36,VWS V14.01,2013-02-27 04:34:00,
2013-02-26 23:40:00,34.0,12.2,29.46,SW,216,2.7,2.7,40,0.00,,,2.36,VWS V14.01,2013-02-27 04:40:00,
2013-02-26 23:45:00,34.0,12.2,29.46,SSW,212,3.6,4.0,40,0.00,,,2.36,VWS V14.01,2013-02-27 04:45:00,
2013-02-26 23:50:00,33.6,11.9,29.46,North,0,0.0,5.4,40,0.00,,,2.36,VWS V14.01,2013-02-27 04:50:00,
2013-02-26 23:55:00,33.8,12.1,29.46,West,270,2.2,2.2,40,0.00,,,2.36,VWS V14.01,2013-02-27 04:55:00,